sensor_id;sensor_type;location;lat;lon;timestamp;temperature;humidity
74294;DHT22;64044;59.904;10.738;2023-07-08T00:00:42;19.80;64.80
74294;DHT22;64044;59.904;10.738;2023-07-08T00:03:09;19.80;64.20
74294;DHT22;64044;59.904;10.738;2023-07-08T00:05:35;19.80;64.50
74294;DHT22;64044;59.904;10.738;2023-07-08T00:08:01;19.80;64.70
74294;DHT22;64044;59.904;10.738;2023-07-08T00:10:28;19.80;64.70
74294;DHT22;64044;59.904;10.738;2023-07-08T00:12:55;19.80;64.80
74294;DHT22;64044;59.904;10.738;2023-07-08T00:15:25;19.80;64.90
74294;DHT22;64044;59.904;10.738;2023-07-08T00:17:51;19.80;65.50
74294;DHT22;64044;59.904;10.738;2023-07-08T00:20:29;19.80;65.20
74294;DHT22;64044;59.904;10.738;2023-07-08T00:22:57;19.70;65.90
74294;DHT22;64044;59.904;10.738;2023-07-08T00:25:27;19.70;65.50
74294;DHT22;64044;59.904;10.738;2023-07-08T00:27:53;19.70;65.50
74294;DHT22;64044;59.904;10.738;2023-07-08T00:30:23;19.70;65.60
74294;DHT22;64044;59.904;10.738;2023-07-08T00:32:49;19.70;65.80
74294;DHT22;64044;59.904;10.738;2023-07-08T00:35:25;19.70;65.60
74294;DHT22;64044;59.904;10.738;2023-07-08T00:37:52;19.70;65.70
74294;DHT22;64044;59.904;10.738;2023-07-08T00:40:20;19.60;65.80
74294;DHT22;64044;59.904;10.738;2023-07-08T00:42:47;19.60;65.90
74294;DHT22;64044;59.904;10.738;2023-07-08T00:45:41;19.60;66.00
74294;DHT22;64044;59.904;10.738;2023-07-08T00:48:31;19.60;67.40
74294;DHT22;64044;59.904;10.738;2023-07-08T00:50:59;19.60;67.50
74294;DHT22;64044;59.904;10.738;2023-07-08T00:53:33;19.60;66.00
74294;DHT22;64044;59.904;10.738;2023-07-08T00:56:20;19.60;66.90
74294;DHT22;64044;59.904;10.738;2023-07-08T00:59:01;19.60;67.30
74294;DHT22;64044;59.904;10.738;2023-07-08T01:01:29;19.60;66.30
74294;DHT22;64044;59.904;10.738;2023-07-08T01:04:01;19.70;66.10
74294;DHT22;64044;59.904;10.738;2023-07-08T01:06:30;19.60;66.20
74294;DHT22;64044;59.904;10.738;2023-07-08T01:09:00;19.60;66.00
74294;DHT22;64044;59.904;10.738;2023-07-08T01:11:32;19.60;66.10
74294;DHT22;64044;59.904;10.738;2023-07-08T01:13:59;19.60;65.90
74294;DHT22;64044;59.904;10.738;2023-07-08T01:16:26;19.60;65.90
74294;DHT22;64044;59.904;10.738;2023-07-08T01:18:52;19.60;65.90
74294;DHT22;64044;59.904;10.738;2023-07-08T01:21:36;19.60;66.00
74294;DHT22;64044;59.904;10.738;2023-07-08T01:24:06;19.60;67.00
74294;DHT22;64044;59.904;10.738;2023-07-08T01:26:34;19.60;66.20
74294;DHT22;64044;59.904;10.738;2023-07-08T01:29:02;19.50;66.10
74294;DHT22;64044;59.904;10.738;2023-07-08T01:31:29;19.60;66.20
74294;DHT22;64044;59.904;10.738;2023-07-08T01:33:55;19.50;66.10
74294;DHT22;64044;59.904;10.738;2023-07-08T01:36:21;19.50;66.20
74294;DHT22;64044;59.904;10.738;2023-07-08T01:38:47;19.50;66.30
74294;DHT22;64044;59.904;10.738;2023-07-08T01:41:14;19.50;66.40
74294;DHT22;64044;59.904;10.738;2023-07-08T01:43:41;19.50;66.50
74294;DHT22;64044;59.904;10.738;2023-07-08T01:46:26;19.40;66.40
74294;DHT22;64044;59.904;10.738;2023-07-08T01:48:56;19.50;67.80
74294;DHT22;64044;59.904;10.738;2023-07-08T01:51:23;19.50;66.80
74294;DHT22;64044;59.904;10.738;2023-07-08T01:53:49;19.40;66.70
74294;DHT22;64044;59.904;10.738;2023-07-08T01:56:15;19.40;66.80
74294;DHT22;64044;59.904;10.738;2023-07-08T01:58:41;19.40;66.90
74294;DHT22;64044;59.904;10.738;2023-07-08T02:01:08;19.40;66.90
74294;DHT22;64044;59.904;10.738;2023-07-08T02:03:34;19.40;66.90
74294;DHT22;64044;59.904;10.738;2023-07-08T02:06:00;19.40;67.00
74294;DHT22;64044;59.904;10.738;2023-07-08T02:08:26;19.40;67.10
74294;DHT22;64044;59.904;10.738;2023-07-08T02:10:56;19.40;67.10
74294;DHT22;64044;59.904;10.738;2023-07-08T02:13:23;19.40;67.50
74294;DHT22;64044;59.904;10.738;2023-07-08T02:15:49;19.40;67.10
74294;DHT22;64044;59.904;10.738;2023-07-08T02:18:15;19.40;67.10
74294;DHT22;64044;59.904;10.738;2023-07-08T02:20:43;19.40;67.10
74294;DHT22;64044;59.904;10.738;2023-07-08T02:23:08;19.40;67.20
74294;DHT22;64044;59.904;10.738;2023-07-08T02:25:34;19.40;67.00
74294;DHT22;64044;59.904;10.738;2023-07-08T02:28:00;19.50;67.50
74294;DHT22;64044;59.904;10.738;2023-07-08T02:30:26;19.50;67.20
74294;DHT22;64044;59.904;10.738;2023-07-08T02:32:53;19.50;67.10
74294;DHT22;64044;59.904;10.738;2023-07-08T02:35:33;19.50;67.00
74294;DHT22;64044;59.904;10.738;2023-07-08T02:37:59;19.50;67.30
74294;DHT22;64044;59.904;10.738;2023-07-08T02:40:25;19.60;66.90
74294;DHT22;64044;59.904;10.738;2023-07-08T02:42:51;19.50;66.80
74294;DHT22;64044;59.904;10.738;2023-07-08T02:45:18;19.50;66.80
74294;DHT22;64044;59.904;10.738;2023-07-08T02:47:44;19.50;66.90
74294;DHT22;64044;59.904;10.738;2023-07-08T02:50:10;19.60;66.90
74294;DHT22;64044;59.904;10.738;2023-07-08T02:52:37;19.60;66.80
74294;DHT22;64044;59.904;10.738;2023-07-08T02:55:03;19.60;66.60
74294;DHT22;64044;59.904;10.738;2023-07-08T02:57:29;19.60;66.50
74294;DHT22;64044;59.904;10.738;2023-07-08T02:59:54;19.60;66.30
74294;DHT22;64044;59.904;10.738;2023-07-08T03:02:22;19.70;66.30
74294;DHT22;64044;59.904;10.738;2023-07-08T03:04:48;19.70;66.20
74294;DHT22;64044;59.904;10.738;2023-07-08T03:07:16;19.70;66.10
74294;DHT22;64044;59.904;10.738;2023-07-08T03:09:41;19.70;65.90
74294;DHT22;64044;59.904;10.738;2023-07-08T03:12:08;19.70;65.70
74294;DHT22;64044;59.904;10.738;2023-07-08T03:14:34;19.80;65.70
74294;DHT22;64044;59.904;10.738;2023-07-08T03:17:01;19.80;65.40
74294;DHT22;64044;59.904;10.738;2023-07-08T03:19:27;19.90;65.30
74294;DHT22;64044;59.904;10.738;2023-07-08T03:21:53;19.90;65.20
74294;DHT22;64044;59.904;10.738;2023-07-08T03:24:19;19.90;65.10
74294;DHT22;64044;59.904;10.738;2023-07-08T03:26:45;20.00;65.00
74294;DHT22;64044;59.904;10.738;2023-07-08T03:29:16;20.00;64.80
74294;DHT22;64044;59.904;10.738;2023-07-08T03:31:42;20.00;64.50
74294;DHT22;64044;59.904;10.738;2023-07-08T03:34:13;20.10;64.30
74294;DHT22;64044;59.904;10.738;2023-07-08T03:36:48;20.10;64.10
74294;DHT22;64044;59.904;10.738;2023-07-08T03:39:18;20.20;63.90
74294;DHT22;64044;59.904;10.738;2023-07-08T03:41:44;20.20;63.80
74294;DHT22;64044;59.904;10.738;2023-07-08T03:44:11;20.30;63.60
74294;DHT22;64044;59.904;10.738;2023-07-08T03:46:37;20.30;63.30
74294;DHT22;64044;59.904;10.738;2023-07-08T03:49:04;20.40;63.00
74294;DHT22;64044;59.904;10.738;2023-07-08T03:51:35;20.40;62.60
74294;DHT22;64044;59.904;10.738;2023-07-08T03:54:02;20.40;62.30
74294;DHT22;64044;59.904;10.738;2023-07-08T03:56:28;20.50;62.10
74294;DHT22;64044;59.904;10.738;2023-07-08T03:58:54;20.60;61.60
74294;DHT22;64044;59.904;10.738;2023-07-08T04:01:22;20.60;61.30
74294;DHT22;64044;59.904;10.738;2023-07-08T04:03:51;20.60;60.90
74294;DHT22;64044;59.904;10.738;2023-07-08T04:06:17;20.70;60.60
74294;DHT22;64044;59.904;10.738;2023-07-08T04:08:43;20.70;61.20
74294;DHT22;64044;59.904;10.738;2023-07-08T04:11:12;20.80;60.20
74294;DHT22;64044;59.904;10.738;2023-07-08T04:13:38;20.80;59.90
74294;DHT22;64044;59.904;10.738;2023-07-08T04:16:04;20.90;59.80
74294;DHT22;64044;59.904;10.738;2023-07-08T04:18:31;20.90;59.60
74294;DHT22;64044;59.904;10.738;2023-07-08T04:20:57;21.00;59.60
74294;DHT22;64044;59.904;10.738;2023-07-08T04:23:24;21.00;59.50
74294;DHT22;64044;59.904;10.738;2023-07-08T04:25:54;21.00;59.70
74294;DHT22;64044;59.904;10.738;2023-07-08T04:28:21;21.10;59.90
74294;DHT22;64044;59.904;10.738;2023-07-08T04:30:47;21.10;59.90
74294;DHT22;64044;59.904;10.738;2023-07-08T04:33:14;21.10;59.90
74294;DHT22;64044;59.904;10.738;2023-07-08T04:35:42;21.20;59.90
74294;DHT22;64044;59.904;10.738;2023-07-08T04:38:17;21.20;59.60
74294;DHT22;64044;59.904;10.738;2023-07-08T04:40:44;21.20;59.70
74294;DHT22;64044;59.904;10.738;2023-07-08T04:43:09;21.30;59.70
74294;DHT22;64044;59.904;10.738;2023-07-08T04:45:40;21.20;59.70
74294;DHT22;64044;59.904;10.738;2023-07-08T04:48:08;21.20;59.60
74294;DHT22;64044;59.904;10.738;2023-07-08T04:50:42;21.30;59.70
74294;DHT22;64044;59.904;10.738;2023-07-08T04:53:08;21.30;59.50
74294;DHT22;64044;59.904;10.738;2023-07-08T04:55:38;21.40;59.50
74294;DHT22;64044;59.904;10.738;2023-07-08T04:58:04;21.40;59.40
74294;DHT22;64044;59.904;10.738;2023-07-08T05:00:30;21.40;59.40
74294;DHT22;64044;59.904;10.738;2023-07-08T05:02:56;21.40;59.80
74294;DHT22;64044;59.904;10.738;2023-07-08T05:05:22;21.50;60.00
74294;DHT22;64044;59.904;10.738;2023-07-08T05:07:47;21.50;59.60
74294;DHT22;64044;59.904;10.738;2023-07-08T05:10:15;21.60;59.10
74294;DHT22;64044;59.904;10.738;2023-07-08T05:12:41;21.60;59.00
74294;DHT22;64044;59.904;10.738;2023-07-08T05:15:07;21.60;58.90
74294;DHT22;64044;59.904;10.738;2023-07-08T05:17:34;21.70;58.60
74294;DHT22;64044;59.904;10.738;2023-07-08T05:20:00;21.80;58.00
74294;DHT22;64044;59.904;10.738;2023-07-08T05:22:27;21.80;57.80
74294;DHT22;64044;59.904;10.738;2023-07-08T05:24:53;21.90;57.50
74294;DHT22;64044;59.904;10.738;2023-07-08T05:27:46;22.00;57.30
74294;DHT22;64044;59.904;10.738;2023-07-08T05:30:15;22.00;56.90
74294;DHT22;64044;59.904;10.738;2023-07-08T05:32:41;22.10;56.40
74294;DHT22;64044;59.904;10.738;2023-07-08T05:35:07;22.20;56.30
74294;DHT22;64044;59.904;10.738;2023-07-08T05:37:33;22.20;55.80
74294;DHT22;64044;59.904;10.738;2023-07-08T05:39:58;22.30;55.70
74294;DHT22;64044;59.904;10.738;2023-07-08T05:42:27;22.40;55.40
74294;DHT22;64044;59.904;10.738;2023-07-08T05:44:53;22.40;55.10
74294;DHT22;64044;59.904;10.738;2023-07-08T05:47:20;22.50;54.90
74294;DHT22;64044;59.904;10.738;2023-07-08T05:49:47;22.50;54.70
74294;DHT22;64044;59.904;10.738;2023-07-08T05:52:13;22.60;54.60
74294;DHT22;64044;59.904;10.738;2023-07-08T05:54:39;22.60;54.30
74294;DHT22;64044;59.904;10.738;2023-07-08T05:57:08;22.70;54.70
74294;DHT22;64044;59.904;10.738;2023-07-08T05:59:35;22.70;54.00
74294;DHT22;64044;59.904;10.738;2023-07-08T06:02:05;22.70;53.90
74294;DHT22;64044;59.904;10.738;2023-07-08T06:04:32;22.80;53.60
74294;DHT22;64044;59.904;10.738;2023-07-08T06:06:58;22.80;53.40
74294;DHT22;64044;59.904;10.738;2023-07-08T06:09:24;22.90;53.20
74294;DHT22;64044;59.904;10.738;2023-07-08T06:11:50;22.90;53.00
74294;DHT22;64044;59.904;10.738;2023-07-08T06:14:15;23.00;52.90
74294;DHT22;64044;59.904;10.738;2023-07-08T06:16:41;23.00;52.80
74294;DHT22;64044;59.904;10.738;2023-07-08T06:19:07;23.10;52.60
74294;DHT22;64044;59.904;10.738;2023-07-08T06:21:33;23.10;52.60
74294;DHT22;64044;59.904;10.738;2023-07-08T06:23:58;23.10;52.40
74294;DHT22;64044;59.904;10.738;2023-07-08T06:26:24;23.20;52.40
74294;DHT22;64044;59.904;10.738;2023-07-08T06:28:50;23.20;52.50
74294;DHT22;64044;59.904;10.738;2023-07-08T06:31:16;23.30;52.40
74294;DHT22;64044;59.904;10.738;2023-07-08T06:33:42;23.30;52.30
74294;DHT22;64044;59.904;10.738;2023-07-08T06:36:08;23.40;52.10
74294;DHT22;64044;59.904;10.738;2023-07-08T06:38:34;23.40;51.70
74294;DHT22;64044;59.904;10.738;2023-07-08T06:41:00;23.50;51.60
74294;DHT22;64044;59.904;10.738;2023-07-08T06:43:26;23.50;51.40
74294;DHT22;64044;59.904;10.738;2023-07-08T06:45:52;23.60;51.30
74294;DHT22;64044;59.904;10.738;2023-07-08T06:48:17;23.60;51.10
74294;DHT22;64044;59.904;10.738;2023-07-08T06:50:46;23.60;50.90
74294;DHT22;64044;59.904;10.738;2023-07-08T06:53:13;23.60;50.80
74294;DHT22;64044;59.904;10.738;2023-07-08T06:55:39;23.70;50.70
74294;DHT22;64044;59.904;10.738;2023-07-08T06:58:04;23.70;50.80
74294;DHT22;64044;59.904;10.738;2023-07-08T07:00:30;23.70;50.70
74294;DHT22;64044;59.904;10.738;2023-07-08T07:02:56;23.70;50.70
74294;DHT22;64044;59.904;10.738;2023-07-08T07:05:22;23.70;50.60
74294;DHT22;64044;59.904;10.738;2023-07-08T07:07:47;23.70;50.60
74294;DHT22;64044;59.904;10.738;2023-07-08T07:10:13;23.70;50.50
74294;DHT22;64044;59.904;10.738;2023-07-08T07:12:39;23.70;50.50
74294;DHT22;64044;59.904;10.738;2023-07-08T07:15:05;23.70;50.60
74294;DHT22;64044;59.904;10.738;2023-07-08T07:17:31;23.70;50.40
74294;DHT22;64044;59.904;10.738;2023-07-08T07:19:57;23.70;50.30
74294;DHT22;64044;59.904;10.738;2023-07-08T07:22:23;23.70;50.30
74294;DHT22;64044;59.904;10.738;2023-07-08T07:24:49;23.70;50.30
74294;DHT22;64044;59.904;10.738;2023-07-08T07:27:15;23.80;50.20
74294;DHT22;64044;59.904;10.738;2023-07-08T07:29:49;23.80;50.30
74294;DHT22;64044;59.904;10.738;2023-07-08T07:32:17;23.80;50.30
74294;DHT22;64044;59.904;10.738;2023-07-08T07:34:46;23.80;50.30
74294;DHT22;64044;59.904;10.738;2023-07-08T07:37:14;23.90;50.40
74294;DHT22;64044;59.904;10.738;2023-07-08T07:39:41;23.90;50.40
74294;DHT22;64044;59.904;10.738;2023-07-08T07:42:07;24.00;50.80
74294;DHT22;64044;59.904;10.738;2023-07-08T07:44:33;24.00;50.10
74294;DHT22;64044;59.904;10.738;2023-07-08T07:46:59;24.00;50.10
74294;DHT22;64044;59.904;10.738;2023-07-08T07:49:25;24.10;50.10
74294;DHT22;64044;59.904;10.738;2023-07-08T07:51:50;24.10;50.00
74294;DHT22;64044;59.904;10.738;2023-07-08T07:54:16;24.10;50.00
74294;DHT22;64044;59.904;10.738;2023-07-08T07:56:42;24.20;50.00
74294;DHT22;64044;59.904;10.738;2023-07-08T07:59:09;24.20;49.80
74294;DHT22;64044;59.904;10.738;2023-07-08T08:01:34;24.30;49.60
74294;DHT22;64044;59.904;10.738;2023-07-08T08:04:00;24.30;49.60
74294;DHT22;64044;59.904;10.738;2023-07-08T08:06:26;24.30;49.40
74294;DHT22;64044;59.904;10.738;2023-07-08T08:08:52;24.40;49.10
74294;DHT22;64044;59.904;10.738;2023-07-08T08:11:18;24.40;49.10
74294;DHT22;64044;59.904;10.738;2023-07-08T08:13:45;24.50;49.40
74294;DHT22;64044;59.904;10.738;2023-07-08T08:16:11;24.60;49.20
74294;DHT22;64044;59.904;10.738;2023-07-08T08:18:36;24.70;49.10
74294;DHT22;64044;59.904;10.738;2023-07-08T08:21:02;24.80;48.90
74294;DHT22;64044;59.904;10.738;2023-07-08T08:23:28;24.80;48.70
74294;DHT22;64044;59.904;10.738;2023-07-08T08:26:18;24.90;48.80
74294;DHT22;64044;59.904;10.738;2023-07-08T08:28:44;25.10;48.70
74294;DHT22;64044;59.904;10.738;2023-07-08T08:31:10;25.10;48.70
74294;DHT22;64044;59.904;10.738;2023-07-08T08:33:35;25.20;48.40
74294;DHT22;64044;59.904;10.738;2023-07-08T08:36:01;25.20;48.40
74294;DHT22;64044;59.904;10.738;2023-07-08T08:38:27;25.30;48.00
74294;DHT22;64044;59.904;10.738;2023-07-08T08:40:52;25.40;48.00
74294;DHT22;64044;59.904;10.738;2023-07-08T08:43:38;25.40;47.90
74294;DHT22;64044;59.904;10.738;2023-07-08T08:51:42;25.70;47.50
74294;DHT22;64044;59.904;10.738;2023-07-08T08:54:08;25.80;47.60
74294;DHT22;64044;59.904;10.738;2023-07-08T08:57:12;25.90;47.70
74294;DHT22;64044;59.904;10.738;2023-07-08T08:59:56;26.00;46.90
74294;DHT22;64044;59.904;10.738;2023-07-08T09:02:57;26.10;46.70
74294;DHT22;64044;59.904;10.738;2023-07-08T09:05:25;26.20;46.50
74294;DHT22;64044;59.904;10.738;2023-07-08T09:10:55;26.50;45.90
74294;DHT22;64044;59.904;10.738;2023-07-08T09:13:30;26.50;46.50
74294;DHT22;64044;59.904;10.738;2023-07-08T09:16:06;26.70;46.00
74294;DHT22;64044;59.904;10.738;2023-07-08T09:21:41;26.90;45.20
74294;DHT22;64044;59.904;10.738;2023-07-08T09:24:17;27.00;45.10
74294;DHT22;64044;59.904;10.738;2023-07-08T09:26:45;27.20;45.10
74294;DHT22;64044;59.904;10.738;2023-07-08T09:29:12;27.30;45.70
74294;DHT22;64044;59.904;10.738;2023-07-08T09:31:39;27.40;45.00
74294;DHT22;64044;59.904;10.738;2023-07-08T09:34:14;27.50;44.40
74294;DHT22;64044;59.904;10.738;2023-07-08T09:36:42;27.70;44.30
74294;DHT22;64044;59.904;10.738;2023-07-08T09:39:19;27.80;44.10
74294;DHT22;64044;59.904;10.738;2023-07-08T09:41:47;27.90;43.10
74294;DHT22;64044;59.904;10.738;2023-07-08T09:44:27;28.10;43.60
74294;DHT22;64044;59.904;10.738;2023-07-08T09:46:56;28.30;43.50
74294;DHT22;64044;59.904;10.738;2023-07-08T09:51:54;28.60;42.10
74294;DHT22;64044;59.904;10.738;2023-07-08T09:54:21;28.70;42.30
74294;DHT22;64044;59.904;10.738;2023-07-08T09:57:02;28.90;42.40
74294;DHT22;64044;59.904;10.738;2023-07-08T09:59:38;29.00;41.50
74294;DHT22;64044;59.904;10.738;2023-07-08T10:07:45;29.40;40.90
74294;DHT22;64044;59.904;10.738;2023-07-08T10:10:16;29.40;39.80
74294;DHT22;64044;59.904;10.738;2023-07-08T10:12:51;29.40;39.10
74294;DHT22;64044;59.904;10.738;2023-07-08T10:15:31;29.50;39.20
74294;DHT22;64044;59.904;10.738;2023-07-08T10:17:58;29.50;39.20
74294;DHT22;64044;59.904;10.738;2023-07-08T10:20:36;29.60;39.20
74294;DHT22;64044;59.904;10.738;2023-07-08T10:26:06;29.70;40.30
74294;DHT22;64044;59.904;10.738;2023-07-08T10:28:45;29.70;39.40
74294;DHT22;64044;59.904;10.738;2023-07-08T10:31:32;29.70;39.20
74294;DHT22;64044;59.904;10.738;2023-07-08T10:47:59;29.80;37.40
74294;DHT22;64044;59.904;10.738;2023-07-08T11:04:26;30.40;36.80
74294;DHT22;64044;59.904;10.738;2023-07-08T11:07:45;30.30;39.20
74294;DHT22;64044;59.904;10.738;2023-07-08T11:09:56;30.30;37.60
74294;DHT22;64044;59.904;10.738;2023-07-08T11:15:34;30.20;38.90
74294;DHT22;64044;59.904;10.738;2023-07-08T11:21:04;30.10;37.00
74294;DHT22;64044;59.904;10.738;2023-07-08T11:23:51;30.10;39.30
74294;DHT22;64044;59.904;10.738;2023-07-08T11:29:40;30.20;39.10
74294;DHT22;64044;59.904;10.738;2023-07-08T11:32:13;30.20;40.10
74294;DHT22;64044;59.904;10.738;2023-07-08T11:34:41;30.20;39.50
74294;DHT22;64044;59.904;10.738;2023-07-08T11:37:10;30.10;40.20
74294;DHT22;64044;59.904;10.738;2023-07-08T11:39:43;30.10;39.90
74294;DHT22;64044;59.904;10.738;2023-07-08T11:44:48;30.00;41.70
74294;DHT22;64044;59.904;10.738;2023-07-08T11:47:37;30.00;41.40
74294;DHT22;64044;59.904;10.738;2023-07-08T11:50:12;30.00;40.40
74294;DHT22;64044;59.904;10.738;2023-07-08T11:52:54;30.10;40.70
74294;DHT22;64044;59.904;10.738;2023-07-08T11:55:24;30.10;39.30
74294;DHT22;64044;59.904;10.738;2023-07-08T11:57:54;30.10;39.70
74294;DHT22;64044;59.904;10.738;2023-07-08T12:00:24;30.10;40.00
74294;DHT22;64044;59.904;10.738;2023-07-08T12:02:54;30.10;40.70
74294;DHT22;64044;59.904;10.738;2023-07-08T12:05:37;30.10;40.80
74294;DHT22;64044;59.904;10.738;2023-07-08T12:08:15;30.10;39.70
74294;DHT22;64044;59.904;10.738;2023-07-08T12:10:49;30.20;40.20
74294;DHT22;64044;59.904;10.738;2023-07-08T12:13:19;30.40;40.00
74294;DHT22;64044;59.904;10.738;2023-07-08T12:15:45;30.50;39.40
74294;DHT22;64044;59.904;10.738;2023-07-08T12:18:34;30.60;39.00
74294;DHT22;64044;59.904;10.738;2023-07-08T12:21:01;30.70;38.00
74294;DHT22;64044;59.904;10.738;2023-07-08T12:23:28;30.70;38.40
74294;DHT22;64044;59.904;10.738;2023-07-08T12:25:55;30.70;38.50
74294;DHT22;64044;59.904;10.738;2023-07-08T12:28:22;30.70;38.10
74294;DHT22;64044;59.904;10.738;2023-07-08T12:30:48;30.80;38.10
74294;DHT22;64044;59.904;10.738;2023-07-08T12:35:52;31.10;38.60
74294;DHT22;64044;59.904;10.738;2023-07-08T12:38:26;31.30;38.60
74294;DHT22;64044;59.904;10.738;2023-07-08T12:40:54;31.40;37.40
74294;DHT22;64044;59.904;10.738;2023-07-08T12:43:20;31.60;37.60
74294;DHT22;64044;59.904;10.738;2023-07-08T12:45:46;31.70;37.20
74294;DHT22;64044;59.904;10.738;2023-07-08T12:48:12;31.80;36.80
74294;DHT22;64044;59.904;10.738;2023-07-08T12:50:38;31.80;36.20
74294;DHT22;64044;59.904;10.738;2023-07-08T12:53:05;31.80;36.10
74294;DHT22;64044;59.904;10.738;2023-07-08T12:55:37;31.60;36.20
74294;DHT22;64044;59.904;10.738;2023-07-08T12:58:04;31.50;35.70
74294;DHT22;64044;59.904;10.738;2023-07-08T13:00:32;31.30;35.30
74294;DHT22;64044;59.904;10.738;2023-07-08T13:03:22;31.10;36.10
74294;DHT22;64044;59.904;10.738;2023-07-08T13:05:50;30.90;36.90
74294;DHT22;64044;59.904;10.738;2023-07-08T13:08:19;30.80;36.60
74294;DHT22;64044;59.904;10.738;2023-07-08T13:10:47;30.50;36.80
74294;DHT22;64044;59.904;10.738;2023-07-08T13:13:20;30.40;37.40
74294;DHT22;64044;59.904;10.738;2023-07-08T13:15:47;30.20;37.80
74294;DHT22;64044;59.904;10.738;2023-07-08T13:18:22;30.00;37.90
74294;DHT22;64044;59.904;10.738;2023-07-08T13:20:53;29.90;37.00
74294;DHT22;64044;59.904;10.738;2023-07-08T13:23:23;29.80;38.90
74294;DHT22;64044;59.904;10.738;2023-07-08T13:25:50;29.60;39.20
74294;DHT22;64044;59.904;10.738;2023-07-08T13:28:19;29.50;38.90
74294;DHT22;64044;59.904;10.738;2023-07-08T13:30:58;29.40;40.30
74294;DHT22;64044;59.904;10.738;2023-07-08T13:33:32;29.40;40.20
74294;DHT22;64044;59.904;10.738;2023-07-08T13:36:02;29.40;41.00
74294;DHT22;64044;59.904;10.738;2023-07-08T13:38:34;29.50;40.00
74294;DHT22;64044;59.904;10.738;2023-07-08T13:41:03;29.80;39.90
74294;DHT22;64044;59.904;10.738;2023-07-08T13:43:38;30.00;38.40
74294;DHT22;64044;59.904;10.738;2023-07-08T13:46:04;30.10;38.70
74294;DHT22;64044;59.904;10.738;2023-07-08T13:48:43;30.30;38.30
74294;DHT22;64044;59.904;10.738;2023-07-08T13:51:16;30.30;36.80
74294;DHT22;64044;59.904;10.738;2023-07-08T13:53:49;30.30;36.60
74294;DHT22;64044;59.904;10.738;2023-07-08T13:56:38;30.30;37.30
74294;DHT22;64044;59.904;10.738;2023-07-08T13:59:08;30.30;36.30
74294;DHT22;64044;59.904;10.738;2023-07-08T14:01:37;30.20;36.70
74294;DHT22;64044;59.904;10.738;2023-07-08T14:04:04;30.40;37.00
74294;DHT22;64044;59.904;10.738;2023-07-08T14:06:39;30.60;37.30
74294;DHT22;64044;59.904;10.738;2023-07-08T14:09:19;30.90;35.90
74294;DHT22;64044;59.904;10.738;2023-07-08T14:11:47;31.20;36.00
74294;DHT22;64044;59.904;10.738;2023-07-08T14:14:13;31.40;37.40
74294;DHT22;64044;59.904;10.738;2023-07-08T14:16:50;31.70;37.30
74294;DHT22;64044;59.904;10.738;2023-07-08T14:19:20;31.90;38.00
74294;DHT22;64044;59.904;10.738;2023-07-08T14:21:49;32.20;35.70
74294;DHT22;64044;59.904;10.738;2023-07-08T14:24:16;32.40;34.80
74294;DHT22;64044;59.904;10.738;2023-07-08T14:26:44;32.70;35.00
74294;DHT22;64044;59.904;10.738;2023-07-08T14:29:10;33.10;33.50
74294;DHT22;64044;59.904;10.738;2023-07-08T14:31:36;33.50;33.10
74294;DHT22;64044;59.904;10.738;2023-07-08T14:34:26;33.90;32.90
74294;DHT22;64044;59.904;10.738;2023-07-08T14:36:51;34.40;32.80
74294;DHT22;64044;59.904;10.738;2023-07-08T14:39:18;34.90;32.80
74294;DHT22;64044;59.904;10.738;2023-07-08T14:41:46;35.20;32.40
74294;DHT22;64044;59.904;10.738;2023-07-08T14:44:46;35.60;31.70
74294;DHT22;64044;59.904;10.738;2023-07-08T14:47:16;35.90;30.90
74294;DHT22;64044;59.904;10.738;2023-07-08T14:49:42;36.20;31.00
74294;DHT22;64044;59.904;10.738;2023-07-08T14:52:08;36.50;31.00
74294;DHT22;64044;59.904;10.738;2023-07-08T14:54:34;36.70;30.80
74294;DHT22;64044;59.904;10.738;2023-07-08T14:56:59;37.00;30.00
74294;DHT22;64044;59.904;10.738;2023-07-08T14:59:29;37.20;30.20
74294;DHT22;64044;59.904;10.738;2023-07-08T15:01:57;37.40;29.70
74294;DHT22;64044;59.904;10.738;2023-07-08T15:04:24;37.60;29.60
74294;DHT22;64044;59.904;10.738;2023-07-08T15:06:50;37.80;29.40
74294;DHT22;64044;59.904;10.738;2023-07-08T15:09:17;37.90;29.30
74294;DHT22;64044;59.904;10.738;2023-07-08T15:11:44;38.10;28.90
74294;DHT22;64044;59.904;10.738;2023-07-08T15:14:22;38.20;28.60
74294;DHT22;64044;59.904;10.738;2023-07-08T15:16:52;38.30;28.30
74294;DHT22;64044;59.904;10.738;2023-07-08T15:19:19;38.40;27.90
74294;DHT22;64044;59.904;10.738;2023-07-08T15:21:45;38.50;28.70
74294;DHT22;64044;59.904;10.738;2023-07-08T15:24:13;38.70;28.80
74294;DHT22;64044;59.904;10.738;2023-07-08T15:26:40;38.70;28.70
74294;DHT22;64044;59.904;10.738;2023-07-08T15:29:13;38.80;28.20
74294;DHT22;64044;59.904;10.738;2023-07-08T15:31:39;38.80;27.80
74294;DHT22;64044;59.904;10.738;2023-07-08T15:34:16;38.90;27.70
74294;DHT22;64044;59.904;10.738;2023-07-08T15:36:42;38.90;27.60
74294;DHT22;64044;59.904;10.738;2023-07-08T15:39:07;38.90;27.50
74294;DHT22;64044;59.904;10.738;2023-07-08T15:41:34;38.90;27.50
74294;DHT22;64044;59.904;10.738;2023-07-08T15:44:00;38.90;27.70
74294;DHT22;64044;59.904;10.738;2023-07-08T15:46:43;39.00;28.00
74294;DHT22;64044;59.904;10.738;2023-07-08T15:49:21;39.10;27.60
74294;DHT22;64044;59.904;10.738;2023-07-08T15:51:50;39.10;26.90
74294;DHT22;64044;59.904;10.738;2023-07-08T15:54:17;39.10;27.20
74294;DHT22;64044;59.904;10.738;2023-07-08T15:56:44;39.00;27.00
74294;DHT22;64044;59.904;10.738;2023-07-08T15:59:13;38.90;26.90
74294;DHT22;64044;59.904;10.738;2023-07-08T16:01:40;38.50;26.80
74294;DHT22;64044;59.904;10.738;2023-07-08T16:06:47;37.70;27.10
74294;DHT22;64044;59.904;10.738;2023-07-08T16:09:12;37.20;26.90
74294;DHT22;64044;59.904;10.738;2023-07-08T16:11:38;36.60;27.80
74294;DHT22;64044;59.904;10.738;2023-07-08T16:14:04;36.20;27.00
74294;DHT22;64044;59.904;10.738;2023-07-08T16:16:30;35.80;27.30
74294;DHT22;64044;59.904;10.738;2023-07-08T16:18:56;35.50;27.60
74294;DHT22;64044;59.904;10.738;2023-07-08T16:21:21;35.20;28.00
74294;DHT22;64044;59.904;10.738;2023-07-08T16:23:49;34.80;28.30
74294;DHT22;64044;59.904;10.738;2023-07-08T16:26:15;34.60;28.50
74294;DHT22;64044;59.904;10.738;2023-07-08T16:28:43;34.40;28.80
74294;DHT22;64044;59.904;10.738;2023-07-08T16:31:14;34.20;29.00
74294;DHT22;64044;59.904;10.738;2023-07-08T16:33:41;34.20;29.90
74294;DHT22;64044;59.904;10.738;2023-07-08T16:36:19;34.20;29.60